createdAt,value
2022-09-06T00:01:29.003Z,1.80
2022-09-06T00:03:56.292Z,2.10
2022-09-06T00:06:29.825Z,1.77
2022-09-06T00:08:57.068Z,1.60
2022-09-06T00:11:44.949Z,2.22
2022-09-06T00:14:12.307Z,1.80
2022-09-06T00:16:40.676Z,2.13
2022-09-06T00:19:14.956Z,2.10
2022-09-06T00:21:42.247Z,1.73
2022-09-06T00:24:09.747Z,1.77
2022-09-06T00:26:43.877Z,2.00
2022-09-06T00:29:11.067Z,2.47
2022-09-06T00:31:38.279Z,2.30
2022-09-06T00:34:11.960Z,2.33
2022-09-06T00:36:39.098Z,2.33
2022-09-06T00:39:06.294Z,2.20
2022-09-06T00:41:39.775Z,2.17
2022-09-06T00:44:07.042Z,2.10
2022-09-06T00:46:34.700Z,2.05
2022-09-06T00:51:37.753Z,2.00
2022-09-06T00:54:06.004Z,2.58
2022-09-06T00:56:41.918Z,2.10
2022-09-06T00:59:09.120Z,1.90
2022-09-06T01:01:36.355Z,2.10
2022-09-06T01:04:10.821Z,2.17
2022-09-06T01:06:38.072Z,1.60
2022-09-06T01:09:05.223Z,2.10
2022-09-06T01:11:57.808Z,2.15
2022-09-06T01:14:40.641Z,1.80
2022-09-06T01:17:20.015Z,1.35
2022-09-06T01:20:09.618Z,1.83
2022-09-06T01:23:01.947Z,2.10
2022-09-06T01:25:47.638Z,2.00
2022-09-06T01:28:28.129Z,2.30
2022-09-06T01:31:03.186Z,2.60
2022-09-06T01:33:40.872Z,2.38
2022-09-06T01:36:09.565Z,2.28
2022-09-06T01:38:36.885Z,2.20
2022-09-06T01:41:10.928Z,2.40
2022-09-06T01:43:40.145Z,3.05
2022-09-06T01:46:20.144Z,2.10
2022-09-06T01:48:56.798Z,1.40
2022-09-06T01:51:46.929Z,1.60
2022-09-06T01:54:29.555Z,1.67
2022-09-06T01:57:13.870Z,1.60
2022-09-06T01:59:56.087Z,1.92
2022-09-06T02:02:49.021Z,1.98
2022-09-06T02:05:25.112Z,1.73
2022-09-06T02:08:01.825Z,2.30
2022-09-06T02:10:38.621Z,1.75
2022-09-06T02:13:20.931Z,2.03
2022-09-06T02:15:56.810Z,2.08
2022-09-06T02:18:36.825Z,2.53
2022-09-06T02:21:04.723Z,2.10
2022-09-06T02:23:34.399Z,2.42
2022-09-06T02:26:11.991Z,2.17
2022-09-06T02:28:39.390Z,2.55
2022-09-06T02:31:09.782Z,2.20
2022-09-06T02:33:44.050Z,1.92
2022-09-06T02:36:11.339Z,2.20
2022-09-06T02:38:40.865Z,1.83
2022-09-06T02:41:14.913Z,2.35
2022-09-06T02:43:43.618Z,2.40
2022-09-06T02:46:10.869Z,2.65
2022-09-06T02:48:44.847Z,2.40
2022-09-06T02:51:12.053Z,2.20
2022-09-06T02:53:39.660Z,2.13
2022-09-06T02:56:13.962Z,2.40
2022-09-06T02:58:41.170Z,2.35
2022-09-06T03:01:09.142Z,2.40
2022-09-06T03:03:42.850Z,2.40
2022-09-06T03:06:10.039Z,2.38
2022-09-06T03:08:37.190Z,2.30
2022-09-06T03:11:11.080Z,2.40
2022-09-06T03:13:53.126Z,2.70
2022-09-06T03:16:27.058Z,2.67
2022-09-06T03:18:54.389Z,3.05
2022-09-06T03:21:21.587Z,2.58
2022-09-06T03:23:55.932Z,2.30
2022-09-06T03:26:23.231Z,2.67
2022-09-06T03:28:50.420Z,2.60
2022-09-06T03:31:24.989Z,2.67
2022-09-06T03:33:52.400Z,2.67
2022-09-06T03:36:19.515Z,2.35
2022-09-06T03:38:53.963Z,2.25
2022-09-06T03:41:21.293Z,2.20
2022-09-06T03:43:48.513Z,2.50
2022-09-06T03:46:22.289Z,2.22
2022-09-06T03:48:49.988Z,2.35
2022-09-06T03:53:51.047Z,2.22
2022-09-06T03:56:18.231Z,2.70
2022-09-06T03:58:45.349Z,2.58
2022-09-06T04:01:20.167Z,2.40
2022-09-06T04:03:47.792Z,1.75
2022-09-06T04:06:15.042Z,1.90
2022-09-06T04:08:49.082Z,2.53
2022-09-06T04:11:17.515Z,2.30
2022-09-06T04:13:57.941Z,2.40
2022-09-06T04:16:25.236Z,2.00
2022-09-06T04:18:52.480Z,2.47
2022-09-06T04:21:26.093Z,2.35
2022-09-06T04:23:53.330Z,2.13
2022-09-06T04:26:20.520Z,1.73
2022-09-06T04:28:53.958Z,2.13
2022-09-06T04:31:21.203Z,2.42
2022-09-06T04:33:48.475Z,1.98
2022-09-06T04:36:21.931Z,2.20
2022-09-06T04:38:49.253Z,2.42
2022-09-06T04:41:17.293Z,2.40
2022-09-06T04:43:51.047Z,2.33
2022-09-06T04:46:22.739Z,2.20
2022-09-06T04:48:50.417Z,2.22
2022-09-06T04:53:51.357Z,2.20
2022-09-06T04:56:20.100Z,2.83
2022-09-06T04:58:54.962Z,2.05
2022-09-06T05:01:22.732Z,2.53
2022-09-06T05:03:52.180Z,2.00
2022-09-06T05:06:29.978Z,2.30
2022-09-06T05:08:57.241Z,2.53
2022-09-06T05:11:24.525Z,2.65
2022-09-06T05:13:58.007Z,2.40
2022-09-06T05:16:31.920Z,2.00
2022-09-06T05:19:05.937Z,2.28
2022-09-06T05:21:33.146Z,2.30
2022-09-06T05:24:00.294Z,2.33
2022-09-06T05:26:33.961Z,1.92
2022-09-06T05:29:01.221Z,2.47
2022-09-06T05:31:29.388Z,2.28
2022-09-06T05:34:03.995Z,2.28
2022-09-06T05:36:31.459Z,2.50
2022-09-06T05:38:59.194Z,2.35
2022-09-06T05:41:33.906Z,2.47
2022-09-06T05:44:01.121Z,3.13
2022-09-06T05:46:28.332Z,2.90
2022-09-06T05:49:04.921Z,2.60
2022-09-06T05:51:32.818Z,2.08
2022-09-06T05:54:00.026Z,2.00
2022-09-06T05:56:34.067Z,2.20
2022-09-06T05:59:01.303Z,2.55
2022-09-06T06:01:29.838Z,2.58
2022-09-06T06:04:05.956Z,2.50
2022-09-06T06:06:34.257Z,2.70
2022-09-06T06:09:01.534Z,2.20
2022-09-06T06:11:36.075Z,2.20
2022-09-06T06:14:30.770Z,2.50
2022-09-06T06:17:05.140Z,2.45
2022-09-06T06:19:32.429Z,2.40
2022-09-06T06:21:59.604Z,2.25
2022-09-06T06:24:34.072Z,2.58
2022-09-06T06:27:01.284Z,2.85
2022-09-06T06:29:28.509Z,2.78
2022-09-06T06:32:02.096Z,2.83
2022-09-06T06:34:29.391Z,3.30
2022-09-06T06:36:56.542Z,3.40
2022-09-06T06:39:30.145Z,3.72
2022-09-06T06:41:57.452Z,3.55
2022-09-06T06:44:24.586Z,3.20
2022-09-06T06:46:59.203Z,3.85
2022-09-06T06:49:26.483Z,3.65
2022-09-06T06:51:53.617Z,4.00
2022-09-06T06:54:27.224Z,4.13
2022-09-06T06:56:54.466Z,3.53
2022-09-06T06:59:21.680Z,3.25
2022-09-06T07:01:57.150Z,3.08
2022-09-06T07:04:24.427Z,3.22
2022-09-06T07:12:53.772Z,2.60
2022-09-06T07:15:28.200Z,2.40
2022-09-06T07:17:55.932Z,2.47
2022-09-06T07:20:23.724Z,2.17
2022-09-06T07:25:54.344Z,1.90
2022-09-06T07:28:30.006Z,1.98
2022-09-06T07:30:57.264Z,1.70
2022-09-06T07:33:24.630Z,1.30
2022-09-06T07:36:04.112Z,1.58
2022-09-06T07:38:31.625Z,1.48
2022-09-06T07:40:59.999Z,1.90
2022-09-06T07:43:33.972Z,1.70
2022-09-06T07:46:08.812Z,1.70
2022-09-06T07:48:44.135Z,1.30
2022-09-06T07:51:16.735Z,1.20
2022-09-06T07:53:57.873Z,1.38
2022-09-06T07:56:34.544Z,1.23
2022-09-06T07:59:07.923Z,1.20
2022-09-06T08:01:50.435Z,1.05
2022-09-06T08:04:24.102Z,1.05
2022-09-06T08:09:45.924Z,1.48
2022-09-06T08:12:13.273Z,1.00
2022-09-06T08:14:54.076Z,0.95
2022-09-06T08:17:21.254Z,1.13
2022-09-06T08:19:49.252Z,1.02
2022-09-06T08:22:23.065Z,0.90
2022-09-06T08:24:50.311Z,0.80
2022-09-06T08:27:17.428Z,0.90
2022-09-06T08:29:51.040Z,0.80
2022-09-06T08:32:19.495Z,0.90
2022-09-06T08:34:46.611Z,0.77
2022-09-06T08:37:24.419Z,0.93
2022-09-06T08:39:52.291Z,0.93
2022-09-06T08:42:19.476Z,0.93
2022-09-06T08:44:57.091Z,1.00
2022-09-06T08:47:25.142Z,0.82
2022-09-06T08:49:54.799Z,0.95
2022-09-06T08:53:00.168Z,0.60
2022-09-06T08:55:37.723Z,0.80
2022-09-06T08:58:32.071Z,0.98
2022-09-06T09:01:02.015Z,0.80
2022-09-06T09:03:40.199Z,0.77
2022-09-06T09:08:48.032Z,0.80
2022-09-06T09:11:19.493Z,0.80
2022-09-06T09:14:03.161Z,0.80
2022-09-06T09:16:30.574Z,0.80
2022-09-06T09:19:12.147Z,0.90
2022-09-06T09:21:40.490Z,0.90
2022-09-06T09:24:09.600Z,0.90
2022-09-06T09:26:50.501Z,0.60
2022-09-06T09:29:17.953Z,0.77
2022-09-06T09:34:22.079Z,0.80
2022-09-06T09:39:43.997Z,0.55
2022-09-06T09:42:11.197Z,0.80
2022-09-06T09:44:43.525Z,0.80
2022-09-06T09:47:31.037Z,0.82
2022-09-06T09:49:58.846Z,0.88
2022-09-06T09:52:27.586Z,0.63
2022-09-06T09:55:05.185Z,0.70
2022-09-06T09:57:43.767Z,0.70
2022-09-06T10:00:21.078Z,0.80
2022-09-06T10:02:48.317Z,0.90
2022-09-06T10:05:16.110Z,0.73
2022-09-06T10:07:52.083Z,0.75
2022-09-06T10:10:29.760Z,0.70
2022-09-06T10:13:27.102Z,0.50
2022-09-06T10:16:03.281Z,0.80
2022-09-06T10:18:39.165Z,0.80
2022-09-06T10:21:07.440Z,0.77
2022-09-06T10:26:29.251Z,0.57
2022-09-06T10:29:02.455Z,0.60
2022-09-06T10:31:52.164Z,0.80
2022-09-06T10:34:34.200Z,0.70
2022-09-06T10:37:11.123Z,0.70
2022-09-06T10:39:44.610Z,0.80
2022-09-06T10:42:32.184Z,0.75
2022-09-06T10:45:31.825Z,0.60
2022-09-06T10:48:24.109Z,0.80
2022-09-06T10:51:18.680Z,0.75
2022-09-06T10:53:53.027Z,0.80
2022-09-06T10:56:26.613Z,0.77
2022-09-06T11:02:03.764Z,0.75
2022-09-06T11:07:29.919Z,0.80
2022-09-06T11:10:26.187Z,0.70
2022-09-06T11:13:29.858Z,0.70
2022-09-06T11:16:23.324Z,0.77
2022-09-06T11:19:05.365Z,0.57
2022-09-06T11:21:42.135Z,0.90
2022-09-06T11:24:12.429Z,0.88
2022-09-06T11:26:52.007Z,0.45
2022-09-06T11:29:27.061Z,0.75
2022-09-06T11:32:18.108Z,0.73
2022-09-06T11:34:54.336Z,0.80
2022-09-06T11:37:34.086Z,0.88
2022-09-06T11:43:01.198Z,1.13
2022-09-06T11:45:48.632Z,0.73
2022-09-06T11:48:44.122Z,0.80
2022-09-06T11:51:12.469Z,0.73
2022-09-06T11:53:58.179Z,0.98
2022-09-06T11:56:43.500Z,0.70
2022-09-06T11:59:31.165Z,0.95
2022-09-06T12:01:58.445Z,0.80
2022-09-06T12:04:52.367Z,0.90
2022-09-06T12:07:19.660Z,0.80
2022-09-06T12:09:46.958Z,0.82
2022-09-06T12:12:41.190Z,0.63
2022-09-06T12:15:37.858Z,0.77
2022-09-06T12:18:12.163Z,0.85
2022-09-06T12:20:48.586Z,0.90
2022-09-06T12:23:43.167Z,0.90
2022-09-06T12:26:10.941Z,0.80
2022-09-06T12:28:58.056Z,0.90
2022-09-06T12:31:28.567Z,0.63
2022-09-06T12:33:56.840Z,1.00
2022-09-06T12:36:36.011Z,0.85
2022-09-06T12:39:10.028Z,0.60
2022-09-06T12:41:48.192Z,0.73
2022-09-06T12:44:16.707Z,1.10
2022-09-06T12:46:58.194Z,0.77
2022-09-06T12:49:25.427Z,0.90
2022-09-06T12:52:13.311Z,0.70
2022-09-06T12:54:58.617Z,1.47
2022-09-06T12:57:33.158Z,0.80
2022-09-06T13:00:00.460Z,0.65
2022-09-06T13:02:45.384Z,0.70
2022-09-06T13:05:13.558Z,0.80
2022-09-06T13:07:52.372Z,0.93
2022-09-06T13:10:22.196Z,0.80
2022-09-06T13:13:00.189Z,3.80
2022-09-06T13:15:35.017Z,1.63
2022-09-06T13:18:28.782Z,0.65
2022-09-06T13:21:12.009Z,0.70
2022-09-06T13:23:57.097Z,0.85
2022-09-06T13:26:37.810Z,0.85
2022-09-06T13:29:24.222Z,0.80
2022-09-06T13:31:52.427Z,0.70
2022-09-06T13:34:22.652Z,0.70
2022-09-06T13:36:57.139Z,0.60
2022-09-06T13:39:31.914Z,0.80
2022-09-06T13:42:12.240Z,0.85
2022-09-06T13:44:40.299Z,0.70
2022-09-06T13:47:07.474Z,0.70
2022-09-06T13:49:41.044Z,0.90
2022-09-06T13:52:08.314Z,1.20
2022-09-06T13:54:35.549Z,0.63
2022-09-06T13:57:09.708Z,1.02
2022-09-06T13:59:37.081Z,0.68
2022-09-06T14:04:39.298Z,0.73
2022-09-06T14:07:06.543Z,1.05
2022-09-06T14:09:33.844Z,0.77
2022-09-06T14:14:41.955Z,0.70
2022-09-06T14:17:16.129Z,0.77
2022-09-06T14:19:43.358Z,0.65
2022-09-06T14:22:10.560Z,1.30
2022-09-06T14:24:44.126Z,0.75
2022-09-06T14:27:11.633Z,0.75
2022-09-06T14:29:39.325Z,0.75
2022-09-06T14:32:14.230Z,0.90
2022-09-06T14:34:41.570Z,0.80
2022-09-06T14:39:47.333Z,0.90
2022-09-06T14:42:14.775Z,0.75
2022-09-06T14:47:16.206Z,0.90
2022-09-06T14:49:43.520Z,0.88
2022-09-06T14:52:10.729Z,0.95
2022-09-06T14:54:45.231Z,0.70
2022-09-06T14:57:12.595Z,0.98
2022-09-06T15:02:13.487Z,0.50
2022-09-06T15:04:41.315Z,0.70
2022-09-06T15:07:10.285Z,0.68
2022-09-06T15:09:44.112Z,0.82
2022-09-06T15:12:11.557Z,0.82
2022-09-06T15:17:19.499Z,1.10
2022-09-06T15:19:46.938Z,0.93
2022-09-06T15:22:21.343Z,0.82
2022-09-06T15:24:50.351Z,0.80
2022-09-06T15:27:17.900Z,1.27
2022-09-06T15:29:52.309Z,1.90
2022-09-06T15:32:19.626Z,6.85
2022-09-06T15:34:46.785Z,2.40
2022-09-06T15:37:20.509Z,0.80
2022-09-06T15:39:47.856Z,0.90
2022-09-06T15:42:15.079Z,0.90
2022-09-06T15:44:49.383Z,0.75
2022-09-06T15:47:16.609Z,0.77
2022-09-06T15:49:43.993Z,0.98
2022-09-06T15:55:05.468Z,0.93
2022-09-06T15:57:40.273Z,0.90
2022-09-06T16:00:07.775Z,0.73
2022-09-06T16:05:09.450Z,0.73
2022-09-06T16:07:40.993Z,0.80
2022-09-06T16:10:08.250Z,1.00
2022-09-06T16:12:42.212Z,1.10
2022-09-06T16:15:16.048Z,0.68
2022-09-06T16:17:54.362Z,0.80
2022-09-06T16:20:23.162Z,0.90
2022-09-06T16:22:57.271Z,0.70
2022-09-06T16:25:25.023Z,0.90
2022-09-06T16:27:52.225Z,0.90
2022-09-06T16:30:26.427Z,0.80
2022-09-06T16:32:53.765Z,0.80
2022-09-06T16:35:20.894Z,1.00
2022-09-06T16:37:55.354Z,0.73
2022-09-06T16:40:22.616Z,0.80
2022-09-06T16:42:49.731Z,0.85
2022-09-06T16:45:23.282Z,0.80
2022-09-06T16:47:50.566Z,0.63
2022-09-06T16:50:18.063Z,0.88
2022-09-06T16:52:52.191Z,0.80
2022-09-06T16:55:19.504Z,1.08
2022-09-06T16:57:46.675Z,1.05
2022-09-06T17:00:22.480Z,0.88
2022-09-06T17:02:49.846Z,0.90
2022-09-06T17:05:17.064Z,0.90
2022-09-06T17:07:51.348Z,0.80
2022-09-06T17:10:18.891Z,1.15
2022-09-06T17:15:20.378Z,0.80
2022-09-06T17:17:47.737Z,0.75
2022-09-06T17:20:18.107Z,0.52
2022-09-06T17:22:57.233Z,0.65
2022-09-06T17:25:24.460Z,1.00
2022-09-06T17:27:51.683Z,0.90
2022-09-06T17:30:25.322Z,0.90
2022-09-06T17:32:53.060Z,1.20
2022-09-06T17:35:20.198Z,1.05
2022-09-06T17:37:54.352Z,1.02
2022-09-06T17:40:21.768Z,0.90
2022-09-06T17:42:49.304Z,0.98
2022-09-06T17:45:23.383Z,1.20
2022-09-06T17:47:50.622Z,0.90
2022-09-06T17:50:17.758Z,0.80
2022-09-06T17:52:51.509Z,1.00
2022-09-06T17:55:18.692Z,0.90
2022-09-06T17:57:45.827Z,1.00
2022-09-06T18:00:22.499Z,1.20
2022-09-06T18:02:49.706Z,0.80
2022-09-06T18:05:16.914Z,0.93
2022-09-06T18:07:51.377Z,0.98
2022-09-06T18:10:18.619Z,0.90
2022-09-06T18:12:45.989Z,0.52
2022-09-06T18:15:20.384Z,1.08
2022-09-06T18:17:54.214Z,0.90
2022-09-06T18:20:35.501Z,1.00
2022-09-06T18:23:02.726Z,1.30
2022-09-06T18:25:29.997Z,0.90
2022-09-06T18:28:04.446Z,1.02
2022-09-06T18:30:31.717Z,1.30
2022-09-06T18:32:58.860Z,1.83
2022-09-06T18:35:37.541Z,3.70
2022-09-06T18:38:04.733Z,2.30
2022-09-06T18:40:31.879Z,1.10
2022-09-06T18:43:20.395Z,0.93
2022-09-06T18:45:47.623Z,1.35
2022-09-06T18:48:15.886Z,1.30
2022-09-06T18:50:50.352Z,1.13
2022-09-06T18:53:18.355Z,1.00
2022-09-06T18:55:45.715Z,1.15
2022-09-06T18:58:22.336Z,1.17
2022-09-06T19:00:50.859Z,1.40
2022-09-06T19:03:18.077Z,1.23
2022-09-06T19:05:59.487Z,1.23
2022-09-06T19:08:28.821Z,1.00
2022-09-06T19:11:11.395Z,1.30
2022-09-06T19:13:59.063Z,1.40
2022-09-06T19:16:35.450Z,1.33
2022-09-06T19:19:07.023Z,1.20
2022-09-06T19:21:37.949Z,1.30
2022-09-06T19:24:17.395Z,1.25
2022-09-06T19:26:44.845Z,1.42
2022-09-06T19:29:13.627Z,1.27
2022-09-06T19:31:51.587Z,1.30
2022-09-06T19:34:19.003Z,1.70
2022-09-06T19:36:46.242Z,1.63
2022-09-06T19:39:22.240Z,1.40
2022-09-06T19:41:49.579Z,1.30
2022-09-06T19:44:17.439Z,1.20
2022-09-06T19:46:53.229Z,1.48
2022-09-06T19:49:20.903Z,1.48
2022-09-06T19:54:22.708Z,1.20
2022-09-06T19:56:49.962Z,1.50
2022-09-06T19:59:24.432Z,1.50
2022-09-06T20:01:51.713Z,1.60
2022-09-06T20:04:19.961Z,1.60
2022-09-06T20:06:59.511Z,1.40
2022-09-06T20:09:28.440Z,1.35
2022-09-06T20:12:02.437Z,2.28
2022-09-06T20:14:38.759Z,2.33
2022-09-06T20:17:32.909Z,2.25
2022-09-06T20:19:59.730Z,1.60
2022-09-06T20:22:33.330Z,1.95
2022-09-06T20:25:00.553Z,2.08
2022-09-06T20:27:31.054Z,1.55
2022-09-06T20:30:10.626Z,2.25
2022-09-06T20:32:37.867Z,1.90
2022-09-06T20:35:05.108Z,1.73
2022-09-06T20:37:39.474Z,1.70
2022-09-06T20:40:07.591Z,1.60
2022-09-06T20:42:34.776Z,1.92
2022-09-06T20:45:10.455Z,1.77
2022-09-06T20:47:37.672Z,1.60
2022-09-06T20:50:04.945Z,1.70
2022-09-06T20:52:40.391Z,1.90
2022-09-06T20:55:08.312Z,1.90
2022-09-06T20:57:35.508Z,1.85
2022-09-06T21:00:14.147Z,1.60
2022-09-06T21:02:41.768Z,1.90
2022-09-06T21:05:16.424Z,2.17
2022-09-06T21:07:43.676Z,1.80
2022-09-06T21:10:11.608Z,1.67
2022-09-06T21:12:45.499Z,1.85
2022-09-06T21:15:19.179Z,2.00
2022-09-06T21:18:00.538Z,2.20
2022-09-06T21:20:27.834Z,2.38
2022-09-06T21:22:54.969Z,2.20
2022-09-06T21:25:29.405Z,1.92
2022-09-06T21:27:56.595Z,2.00
2022-09-06T21:30:23.736Z,2.10
2022-09-06T21:33:00.425Z,1.73
2022-09-06T21:35:27.623Z,1.98
2022-09-06T21:37:54.737Z,1.85
2022-09-06T21:40:28.437Z,2.05
2022-09-06T21:42:55.641Z,1.90
2022-09-06T21:45:22.847Z,1.85
2022-09-06T21:47:56.447Z,2.00
2022-09-06T21:50:23.710Z,2.30
2022-09-06T21:52:50.840Z,1.98
2022-09-06T21:55:24.441Z,2.00
2022-09-06T21:57:51.680Z,1.80
2022-09-06T22:00:18.822Z,2.00
2022-09-06T22:02:52.294Z,1.92
2022-09-06T22:05:19.525Z,2.22
2022-09-06T22:07:46.711Z,2.30
2022-09-06T22:10:20.305Z,2.10
2022-09-06T22:12:47.626Z,2.17
2022-09-06T22:15:29.524Z,2.30
2022-09-06T22:17:56.816Z,2.30
2022-09-06T22:20:24.002Z,2.28
2022-09-06T22:22:58.440Z,2.20
2022-09-06T22:25:25.766Z,2.13
2022-09-06T22:27:52.886Z,2.13
2022-09-06T22:30:27.380Z,2.00
2022-09-06T22:32:54.673Z,2.42
2022-09-06T22:35:21.914Z,2.15
2022-09-06T22:37:56.475Z,2.20
2022-09-06T22:40:23.743Z,1.98
2022-09-06T22:42:50.907Z,2.35
2022-09-06T22:45:24.452Z,1.98
2022-09-06T22:47:51.751Z,2.08
2022-09-06T22:50:18.968Z,1.90
2022-09-06T22:52:52.447Z,1.73
2022-09-06T22:55:19.830Z,1.90
2022-09-06T22:57:46.952Z,1.90
2022-09-06T23:00:21.376Z,2.38
2022-09-06T23:02:48.672Z,2.13
2022-09-06T23:05:16.350Z,2.00
2022-09-06T23:10:18.144Z,2.08
2022-09-06T23:15:19.420Z,2.10
2022-09-06T23:17:53.345Z,2.20
2022-09-06T23:20:27.563Z,2.47
2022-09-06T23:22:54.852Z,2.25
2022-09-06T23:25:22.022Z,2.00
2022-09-06T23:27:56.456Z,2.63
2022-09-06T23:30:23.643Z,2.50
2022-09-06T23:32:50.812Z,2.30
2022-09-06T23:35:24.468Z,2.33
2022-09-06T23:37:51.832Z,2.30
2022-09-06T23:40:19.643Z,2.30
2022-09-06T23:42:53.275Z,1.98
2022-09-06T23:45:20.516Z,1.83
2022-09-06T23:47:47.647Z,2.08
2022-09-06T23:50:22.399Z,2.00
2022-09-06T23:52:49.598Z,1.95
2022-09-06T23:55:16.811Z,2.20
2022-09-06T23:57:50.527Z,2.10
